createdAt,value
2022-09-21T00:02:42.275Z,14.61
2022-09-21T00:05:27.884Z,14.62
2022-09-21T00:08:14.570Z,14.58
2022-09-21T00:11:00.915Z,14.55
2022-09-21T00:13:47.773Z,14.52
2022-09-21T00:16:34.119Z,14.50
2022-09-21T00:19:20.290Z,14.46
2022-09-21T00:22:07.413Z,14.44
2022-09-21T00:24:53.163Z,14.43
2022-09-21T00:27:38.958Z,14.40
2022-09-21T00:30:24.992Z,14.39
2022-09-21T00:33:10.776Z,14.37
2022-09-21T00:35:56.483Z,14.33
2022-09-21T00:38:42.298Z,14.33
2022-09-21T00:41:29.927Z,14.29
2022-09-21T00:44:18.803Z,14.27
2022-09-21T00:47:11.887Z,14.24
2022-09-21T00:49:58.811Z,14.23
2022-09-21T00:52:52.545Z,14.20
2022-09-21T00:55:41.986Z,14.18
2022-09-21T00:58:34.793Z,14.13
2022-09-21T01:01:20.946Z,14.15
2022-09-21T01:04:07.160Z,14.14
2022-09-21T01:06:53.012Z,14.13
2022-09-21T01:09:40.972Z,14.13
2022-09-21T01:12:32.762Z,14.11
2022-09-21T01:15:42.766Z,14.09
2022-09-21T01:18:46.792Z,14.05
2022-09-21T01:21:51.253Z,14.00
2022-09-21T01:24:51.747Z,13.98
2022-09-21T01:27:59.266Z,13.94
2022-09-21T01:30:48.981Z,13.91
2022-09-21T01:33:52.438Z,13.84
2022-09-21T01:36:39.263Z,13.81
2022-09-21T01:39:26.155Z,13.79
2022-09-21T01:42:13.624Z,13.76
2022-09-21T01:45:01.869Z,13.71
2022-09-21T01:47:49.614Z,13.67
2022-09-21T01:50:47.054Z,13.65
2022-09-21T01:53:40.115Z,13.62
2022-09-21T01:56:28.324Z,13.64
2022-09-21T01:59:34.036Z,13.59
2022-09-21T02:02:41.080Z,13.65
2022-09-21T02:05:30.111Z,13.65
2022-09-21T02:08:16.012Z,13.67
2022-09-21T02:11:04.319Z,13.67
2022-09-21T02:13:52.801Z,13.66
2022-09-21T02:17:15.080Z,13.64
2022-09-21T02:20:26.176Z,13.67
2022-09-21T02:23:26.754Z,13.66
2022-09-21T02:26:17.697Z,13.63
2022-09-21T02:46:58.104Z,13.62
2022-09-21T02:49:48.743Z,13.66
2022-09-21T02:52:37.248Z,13.66
2022-09-21T02:56:32.494Z,13.65
2022-09-21T02:59:18.906Z,13.68
2022-09-21T03:07:15.666Z,13.64
2022-09-21T03:10:02.198Z,13.65
2022-09-21T03:13:21.356Z,13.63
2022-09-21T03:16:07.564Z,13.68
2022-09-21T03:18:53.533Z,13.67
2022-09-21T03:21:49.454Z,13.63
2022-09-21T03:28:16.331Z,13.62
2022-09-21T03:40:16.440Z,13.53
2022-09-21T03:43:02.523Z,13.53
2022-09-21T03:50:57.422Z,13.48
2022-09-21T03:54:00.823Z,13.43
2022-09-21T03:56:46.821Z,13.47
2022-09-21T03:59:32.522Z,13.47
2022-09-21T04:04:01.616Z,13.42
2022-09-21T04:08:32.958Z,13.40
2022-09-21T04:13:02.630Z,13.37
2022-09-21T04:21:00.260Z,13.37
2022-09-21T04:23:56.592Z,13.34
2022-09-21T04:26:42.348Z,13.35
2022-09-21T04:29:27.952Z,13.36
2022-09-21T04:33:24.543Z,13.31
2022-09-21T04:40:39.574Z,13.26
2022-09-21T04:43:26.224Z,13.26
2022-09-21T04:50:41.440Z,13.23
2022-09-21T04:53:29.295Z,13.22
2022-09-21T05:00:44.421Z,13.18
2022-09-21T05:03:31.070Z,13.18
2022-09-21T05:10:33.757Z,13.10
2022-09-21T05:13:19.909Z,13.11
2022-09-21T05:16:55.935Z,13.06
2022-09-21T05:19:42.052Z,13.08
2022-09-21T05:22:28.143Z,13.07
2022-09-21T05:25:13.967Z,13.07
2022-09-21T05:27:59.764Z,13.06
2022-09-21T05:31:07.484Z,13.07
2022-09-21T05:34:17.476Z,13.05
2022-09-21T05:37:22.611Z,13.09
2022-09-21T05:40:11.178Z,13.07
2022-09-21T05:42:57.312Z,13.11
2022-09-21T05:45:48.302Z,13.08
2022-09-21T05:48:40.132Z,13.12
2022-09-21T05:51:31.878Z,13.12
2022-09-21T05:54:49.226Z,13.09
2022-09-21T05:57:59.987Z,13.10
2022-09-21T06:00:56.978Z,13.13
2022-09-21T06:03:43.367Z,13.16
2022-09-21T06:06:29.353Z,13.18
2022-09-21T06:09:16.121Z,13.19
2022-09-21T06:12:02.396Z,13.24
2022-09-21T06:14:48.543Z,13.26
2022-09-21T06:17:34.589Z,13.27
2022-09-21T06:20:20.739Z,13.31
2022-09-21T06:23:09.400Z,13.35
2022-09-21T06:25:58.408Z,13.41
2022-09-21T06:28:44.632Z,13.47
2022-09-21T06:31:30.913Z,13.52
2022-09-21T06:34:16.913Z,13.55
2022-09-21T06:37:03.229Z,13.60
2022-09-21T06:39:48.995Z,13.64
2022-09-21T06:42:34.877Z,13.72
2022-09-21T06:45:21.024Z,13.74
2022-09-21T06:48:06.668Z,13.82
2022-09-21T06:50:57.418Z,13.89
2022-09-21T06:53:43.326Z,13.93
2022-09-21T06:56:29.257Z,13.98
2022-09-21T06:59:15.245Z,14.01
2022-09-21T07:02:01.533Z,14.04
2022-09-21T07:04:47.366Z,14.03
2022-09-21T07:07:33.074Z,14.05
2022-09-21T07:10:20.885Z,14.05
2022-09-21T07:13:09.538Z,14.08
2022-09-21T07:15:55.856Z,14.09
2022-09-21T07:18:44.027Z,14.10
2022-09-21T07:21:30.369Z,14.09
2022-09-21T07:24:16.138Z,14.09
2022-09-21T07:27:02.203Z,14.13
2022-09-21T07:29:48.171Z,14.15
2022-09-21T07:32:34.660Z,14.16
2022-09-21T07:35:20.596Z,14.20
2022-09-21T07:38:07.944Z,14.23
2022-09-21T09:45:03.684Z,15.29
2022-09-21T09:47:49.520Z,15.47
2022-09-21T09:50:37.977Z,15.64
2022-09-21T09:53:27.341Z,15.74
2022-09-21T09:56:14.919Z,15.91
2022-09-21T09:59:08.158Z,16.04
2022-09-21T10:02:11.759Z,16.14
2022-09-21T10:05:07.694Z,16.26
2022-09-21T10:07:53.714Z,16.37
2022-09-21T10:10:42.619Z,16.44
2022-09-21T10:13:44.453Z,16.55
2022-09-21T10:16:30.358Z,16.63
2022-09-21T10:19:25.470Z,16.71
2022-09-21T10:22:19.293Z,16.80
2022-09-21T10:25:08.410Z,16.87
2022-09-21T10:27:56.021Z,16.94
2022-09-21T10:30:41.910Z,16.96
2022-09-21T10:33:27.574Z,17.07
2022-09-21T10:36:44.894Z,17.14
2022-09-21T10:39:32.241Z,17.23
2022-09-21T10:42:18.904Z,17.32
2022-09-21T10:45:34.866Z,17.44
2022-09-21T10:48:22.661Z,17.56
2022-09-21T10:51:24.603Z,17.66
2022-09-21T10:54:11.466Z,17.76
2022-09-21T10:57:20.401Z,17.89
2022-09-21T11:00:25.737Z,18.01
2022-09-21T11:03:39.499Z,18.15
2022-09-21T11:06:35.260Z,18.30
2022-09-21T11:09:39.765Z,18.43
2022-09-21T11:16:46.915Z,18.74
2022-09-21T11:20:19.212Z,18.87
2022-09-21T11:23:47.261Z,19.02
2022-09-21T11:26:44.901Z,19.14
2022-09-21T11:30:03.210Z,19.23
2022-09-21T11:33:15.471Z,19.34
2022-09-21T11:36:08.447Z,19.48
2022-09-21T11:39:19.112Z,19.60
2022-09-21T11:42:34.369Z,19.69
2022-09-21T11:45:38.074Z,19.79
2022-09-21T11:48:35.472Z,19.96
2022-09-21T11:51:21.423Z,20.19
2022-09-21T11:54:30.115Z,20.51
2022-09-21T11:57:36.921Z,20.92
2022-09-21T12:00:23.593Z,21.29
2022-09-21T12:03:31.726Z,21.63
2022-09-21T12:06:47.894Z,21.91
2022-09-21T12:09:43.963Z,21.96
2022-09-21T12:12:49.594Z,21.87
2022-09-21T12:15:52.074Z,21.73
2022-09-21T12:18:49.558Z,21.68
2022-09-21T12:21:41.794Z,21.63
2022-09-21T12:24:45.176Z,21.54
2022-09-21T12:27:46.747Z,21.36
2022-09-21T12:30:51.504Z,21.20
2022-09-21T12:33:40.731Z,21.16
2022-09-21T12:36:40.956Z,21.17
2022-09-21T12:39:39.921Z,21.26
2022-09-21T12:42:33.830Z,21.32
2022-09-21T12:45:27.835Z,21.36
2022-09-21T12:48:22.506Z,21.41
2022-09-21T12:51:12.063Z,21.43
2022-09-21T12:54:01.368Z,21.47
2022-09-21T12:57:23.531Z,21.57
2022-09-21T13:00:25.538Z,21.63
2022-09-21T13:03:22.075Z,21.57
2022-09-21T13:06:43.171Z,21.45
2022-09-21T13:09:29.586Z,21.24
2022-09-21T13:12:17.557Z,21.14
2022-09-21T13:15:17.883Z,21.15
2022-09-21T13:18:06.118Z,21.25
2022-09-21T13:20:54.450Z,21.34
2022-09-21T13:23:42.116Z,21.40
2022-09-21T13:26:38.245Z,21.40
2022-09-21T13:29:25.142Z,21.33
2022-09-21T13:32:14.311Z,21.20
2022-09-21T13:35:43.998Z,21.02
2022-09-21T13:38:34.505Z,20.80
2022-09-21T13:41:45.499Z,20.61
2022-09-21T13:44:41.838Z,20.52
2022-09-21T13:47:41.916Z,20.49
2022-09-21T13:50:39.460Z,20.49
2022-09-21T13:53:38.464Z,20.67
2022-09-21T13:56:25.920Z,20.90
2022-09-21T13:59:24.702Z,21.15
2022-09-21T14:02:35.313Z,21.39
2022-09-21T14:05:51.890Z,21.59
2022-09-21T14:08:48.809Z,21.75
2022-09-21T14:11:41.659Z,21.86
2022-09-21T14:14:37.359Z,21.99
2022-09-21T14:17:39.550Z,22.14
2022-09-21T14:20:35.895Z,22.27
2022-09-21T14:23:24.718Z,22.38
2022-09-21T14:26:41.280Z,22.53
2022-09-21T14:29:47.074Z,22.59
2022-09-21T14:32:43.557Z,22.66
2022-09-21T14:35:43.047Z,22.62
2022-09-21T14:38:31.952Z,22.43
2022-09-21T14:41:21.158Z,22.28
2022-09-21T14:44:13.108Z,22.08
2022-09-21T14:47:20.785Z,21.85
2022-09-21T14:50:20.748Z,21.59
2022-09-21T14:53:28.115Z,21.33
2022-09-21T14:56:36.048Z,21.05
2022-09-21T14:59:35.771Z,20.79
2022-09-21T15:02:24.353Z,20.57
2022-09-21T15:05:26.952Z,20.37
2022-09-21T15:09:02.985Z,20.15
2022-09-21T15:11:57.446Z,19.92
2022-09-21T15:14:52.578Z,19.73
2022-09-21T15:17:56.082Z,19.54
2022-09-21T15:20:44.953Z,19.38
2022-09-21T15:23:40.777Z,19.23
2022-09-21T15:26:29.959Z,19.11
2022-09-21T15:29:24.703Z,18.95
2022-09-21T15:32:42.002Z,18.83
2022-09-21T15:35:30.742Z,18.70
2022-09-21T15:38:34.512Z,18.57
2022-09-21T15:41:44.951Z,18.46
2022-09-21T15:44:34.454Z,18.39
2022-09-21T15:47:23.191Z,18.28
2022-09-21T15:50:13.319Z,18.19
2022-09-21T15:53:19.985Z,18.13
2022-09-21T15:56:07.006Z,18.07
2022-09-21T15:59:08.759Z,17.96
2022-09-21T16:01:57.608Z,17.89
2022-09-21T16:04:49.489Z,17.85
2022-09-21T16:07:37.239Z,17.80
2022-09-21T16:10:40.128Z,17.68
2022-09-21T16:13:44.698Z,17.66
2022-09-21T16:16:30.628Z,17.56
2022-09-21T16:19:17.311Z,17.51
2022-09-21T16:22:04.634Z,17.44
2022-09-21T16:24:54.245Z,17.35
2022-09-21T16:27:50.352Z,17.29
2022-09-21T16:30:53.574Z,17.25
2022-09-21T16:33:41.397Z,17.22
2022-09-21T16:36:32.572Z,17.16
2022-09-21T16:39:19.253Z,17.12
2022-09-21T16:42:05.623Z,17.07
2022-09-21T16:44:51.533Z,17.05
2022-09-21T16:47:37.876Z,16.99
2022-09-21T16:50:24.641Z,16.96
2022-09-21T16:53:10.363Z,16.90
2022-09-21T16:55:56.363Z,16.87
2022-09-21T16:58:43.694Z,16.81
2022-09-21T17:01:30.348Z,16.78
2022-09-21T17:04:18.007Z,16.73
2022-09-21T17:07:06.935Z,16.68
2022-09-21T17:09:52.944Z,16.64
2022-09-21T17:12:39.462Z,16.61
2022-09-21T17:15:25.754Z,16.54
2022-09-21T17:18:13.341Z,16.53
2022-09-21T17:20:59.228Z,16.49
2022-09-21T17:23:45.617Z,16.44
2022-09-21T17:26:32.247Z,16.45
2022-09-21T17:29:28.368Z,16.39
2022-09-21T17:32:15.929Z,16.39
2022-09-21T17:35:17.153Z,16.35
2022-09-21T17:38:03.033Z,16.34
2022-09-21T17:40:49.142Z,16.33
2022-09-21T17:43:58.381Z,16.27
2022-09-21T17:46:50.320Z,16.28
2022-09-21T17:49:37.637Z,16.25
2022-09-21T17:52:42.721Z,16.20
2022-09-21T17:55:29.506Z,16.21
2022-09-21T17:58:23.412Z,16.18
2022-09-21T18:01:21.225Z,16.15
2022-09-21T18:04:08.436Z,16.13
2022-09-21T18:06:54.995Z,16.10
2022-09-21T18:09:41.298Z,16.05
2022-09-21T18:12:31.387Z,16.03
2022-09-21T18:15:56.730Z,15.98
2022-09-21T18:18:55.062Z,15.96
2022-09-21T18:21:43.787Z,15.93
2022-09-21T18:24:34.077Z,15.92
2022-09-21T18:27:21.496Z,15.89
2022-09-21T18:30:07.982Z,15.87
2022-09-21T18:33:08.269Z,15.87
2022-09-21T18:36:09.876Z,15.79
2022-09-21T18:39:34.099Z,15.80
2022-09-21T18:42:31.699Z,15.76
2022-09-21T18:45:27.198Z,15.74
2022-09-21T18:48:25.811Z,15.72
2022-09-21T18:51:22.102Z,15.72
2022-09-21T18:54:20.736Z,15.70
2022-09-21T18:57:14.411Z,15.70
2022-09-21T19:00:01.144Z,15.65
2022-09-21T19:03:05.500Z,15.65
2022-09-21T19:06:51.928Z,15.63
2022-09-21T19:09:40.863Z,15.62
2022-09-21T19:13:07.894Z,15.56
2022-09-21T19:16:06.306Z,15.57
2022-09-21T19:19:35.259Z,15.52
2022-09-21T19:22:49.430Z,15.50
2022-09-21T19:25:40.696Z,15.49
2022-09-21T19:28:32.563Z,15.50
2022-09-21T19:31:19.399Z,15.45
2022-09-21T19:34:16.906Z,15.43
2022-09-21T19:37:07.117Z,15.46
2022-09-21T19:39:53.899Z,15.45
2022-09-21T19:42:59.512Z,15.41
2022-09-21T19:46:10.637Z,15.40
2022-09-21T19:49:18.060Z,15.40
2022-09-21T19:52:05.587Z,15.39
2022-09-21T19:55:26.038Z,15.41
2022-09-21T19:58:35.892Z,15.36
2022-09-21T20:01:24.231Z,15.35
2022-09-21T20:04:16.342Z,15.35
2022-09-21T20:07:25.222Z,15.37
2022-09-21T20:10:24.174Z,15.37
2022-09-21T20:13:24.229Z,15.39
2022-09-21T20:16:48.122Z,15.34
2022-09-21T20:20:15.548Z,15.34
2022-09-21T20:23:01.812Z,15.34
2022-09-21T20:26:01.097Z,15.30
2022-09-21T20:28:47.220Z,15.36
2022-09-21T20:31:32.917Z,15.36
2022-09-21T20:34:19.336Z,15.34
2022-09-21T20:37:30.316Z,15.36
2022-09-21T20:40:16.628Z,15.34
2022-09-21T20:43:03.276Z,15.34
2022-09-21T20:45:50.595Z,15.33
2022-09-21T20:48:37.786Z,15.30
2022-09-21T20:51:23.779Z,15.27
2022-09-21T20:54:09.642Z,15.29
2022-09-21T20:56:55.496Z,15.28
2022-09-21T20:59:41.349Z,15.28
2022-09-21T21:02:47.454Z,15.25
2022-09-21T21:05:33.828Z,15.27
2022-09-21T21:08:19.598Z,15.24
2022-09-21T21:11:05.558Z,15.23
2022-09-21T21:13:51.743Z,15.25
2022-09-21T21:17:16.701Z,15.20
2022-09-21T21:20:04.275Z,15.23
2022-09-21T21:22:51.769Z,15.22
2022-09-21T21:25:37.463Z,15.21
2022-09-21T21:28:23.152Z,15.23
2022-09-21T21:31:09.211Z,15.20
2022-09-21T21:33:55.287Z,15.20
2022-09-21T21:36:41.117Z,15.19
2022-09-21T21:39:27.212Z,15.19
2022-09-21T21:42:29.280Z,15.15
2022-09-21T21:45:15.506Z,15.17
2022-09-21T21:48:02.471Z,15.13
2022-09-21T21:50:48.426Z,15.14
2022-09-21T21:53:36.460Z,15.09
2022-09-21T21:56:23.331Z,15.08
2022-09-21T21:59:11.324Z,15.08
2022-09-21T22:01:59.182Z,15.04
2022-09-21T22:04:44.870Z,15.02
2022-09-21T22:07:30.667Z,15.01
2022-09-21T22:10:25.778Z,14.98
2022-09-21T22:13:11.718Z,14.98
2022-09-21T22:16:04.960Z,14.93
2022-09-21T22:18:55.619Z,14.94
2022-09-21T22:21:46.003Z,14.92
2022-09-21T22:24:38.494Z,14.92
2022-09-21T22:27:24.105Z,14.91
2022-09-21T22:30:10.638Z,14.91
2022-09-21T22:32:56.474Z,14.89
2022-09-21T22:35:42.201Z,14.86
2022-09-21T22:38:30.098Z,14.89
2022-09-21T22:41:18.409Z,14.88
2022-09-21T22:44:04.352Z,14.88
2022-09-21T22:46:50.215Z,14.89
2022-09-21T22:49:35.933Z,14.89
2022-09-21T22:52:21.745Z,14.89
2022-09-21T22:55:07.929Z,14.90
2022-09-21T22:57:53.589Z,14.92
2022-09-21T23:00:39.527Z,14.91
2022-09-21T23:03:25.578Z,14.90
2022-09-21T23:06:13.341Z,14.93
2022-09-21T23:09:02.405Z,14.91
2022-09-21T23:11:55.025Z,14.92
2022-09-21T23:14:49.907Z,14.90
2022-09-21T23:17:35.729Z,14.95
2022-09-21T23:20:21.472Z,14.95
2022-09-21T23:23:07.084Z,14.95
2022-09-21T23:26:12.662Z,14.93
2022-09-21T23:29:00.691Z,14.95
2022-09-21T23:31:52.109Z,14.95
2022-09-21T23:34:37.872Z,14.94
2022-09-21T23:37:23.633Z,14.94
2022-09-21T23:40:09.945Z,14.94
2022-09-21T23:42:55.774Z,14.92
2022-09-21T23:46:14.883Z,14.89
2022-09-21T23:49:01.447Z,14.92
2022-09-21T23:51:47.173Z,14.89
2022-09-21T23:54:33.101Z,14.89
2022-09-21T23:57:18.883Z,14.88
